sensor_id;sensor_type;location;lat;lon;timestamp;P1;durP1;ratioP1;P2;durP2;ratioP2
42632;SDS011;28261;53.304;-6.284;2022-07-15T00:00:53;8.88;;;3.35;;
42632;SDS011;28261;53.304;-6.284;2022-07-15T00:02:57;11.55;;;4.07;;
42632;SDS011;28261;53.304;-6.284;2022-07-15T00:05:02;13.85;;;3.25;;
42632;SDS011;28261;53.304;-6.284;2022-07-15T00:07:07;9.43;;;3.20;;
42632;SDS011;28261;53.304;-6.284;2022-07-15T00:09:12;9.00;;;3.47;;
42632;SDS011;28261;53.304;-6.284;2022-07-15T00:11:16;5.82;;;3.22;;
42632;SDS011;28261;53.304;-6.284;2022-07-15T00:13:19;13.68;;;3.55;;
42632;SDS011;28261;53.304;-6.284;2022-07-15T00:15:24;9.75;;;3.70;;
42632;SDS011;28261;53.304;-6.284;2022-07-15T00:17:30;7.55;;;3.38;;
42632;SDS011;28261;53.304;-6.284;2022-07-15T00:19:34;7.35;;;3.45;;
42632;SDS011;28261;53.304;-6.284;2022-07-15T00:21:38;9.20;;;3.58;;
42632;SDS011;28261;53.304;-6.284;2022-07-15T00:23:42;5.45;;;3.25;;
42632;SDS011;28261;53.304;-6.284;2022-07-15T00:25:47;12.73;;;3.55;;
42632;SDS011;28261;53.304;-6.284;2022-07-15T00:27:52;11.20;;;4.15;;
42632;SDS011;28261;53.304;-6.284;2022-07-15T00:29:57;8.32;;;3.25;;
42632;SDS011;28261;53.304;-6.284;2022-07-15T00:32:02;11.35;;;4.25;;
42632;SDS011;28261;53.304;-6.284;2022-07-15T00:34:06;8.23;;;3.35;;
42632;SDS011;28261;53.304;-6.284;2022-07-15T00:36:10;9.95;;;3.78;;
42632;SDS011;28261;53.304;-6.284;2022-07-15T00:38:14;9.40;;;3.53;;
42632;SDS011;28261;53.304;-6.284;2022-07-15T00:40:17;6.85;;;3.15;;
42632;SDS011;28261;53.304;-6.284;2022-07-15T00:42:23;13.63;;;3.60;;
42632;SDS011;28261;53.304;-6.284;2022-07-15T00:44:50;11.10;;;3.53;;
42632;SDS011;28261;53.304;-6.284;2022-07-15T00:46:54;7.90;;;3.45;;
42632;SDS011;28261;53.304;-6.284;2022-07-15T00:48:58;8.13;;;3.40;;
42632;SDS011;28261;53.304;-6.284;2022-07-15T00:51:03;5.55;;;3.33;;
42632;SDS011;28261;53.304;-6.284;2022-07-15T00:53:08;10.05;;;3.70;;
42632;SDS011;28261;53.304;-6.284;2022-07-15T00:55:16;6.90;;;3.70;;
42632;SDS011;28261;53.304;-6.284;2022-07-15T00:57:23;10.48;;;3.50;;
42632;SDS011;28261;53.304;-6.284;2022-07-15T00:59:29;11.15;;;3.30;;
42632;SDS011;28261;53.304;-6.284;2022-07-15T01:01:36;8.75;;;3.30;;
42632;SDS011;28261;53.304;-6.284;2022-07-15T01:03:40;8.57;;;3.58;;
42632;SDS011;28261;53.304;-6.284;2022-07-15T01:05:45;8.85;;;3.20;;
42632;SDS011;28261;53.304;-6.284;2022-07-15T01:07:50;8.63;;;3.25;;
42632;SDS011;28261;53.304;-6.284;2022-07-15T01:09:54;9.75;;;3.70;;
42632;SDS011;28261;53.304;-6.284;2022-07-15T01:11:58;8.75;;;3.40;;
42632;SDS011;28261;53.304;-6.284;2022-07-15T01:14:04;8.68;;;3.70;;
42632;SDS011;28261;53.304;-6.284;2022-07-15T01:16:10;7.85;;;3.35;;
42632;SDS011;28261;53.304;-6.284;2022-07-15T01:18:14;8.18;;;3.35;;
42632;SDS011;28261;53.304;-6.284;2022-07-15T01:20:18;10.82;;;3.42;;
42632;SDS011;28261;53.304;-6.284;2022-07-15T01:22:41;13.52;;;4.40;;
42632;SDS011;28261;53.304;-6.284;2022-07-15T01:24:46;6.32;;;3.58;;
42632;SDS011;28261;53.304;-6.284;2022-07-15T01:26:55;6.13;;;3.38;;
42632;SDS011;28261;53.304;-6.284;2022-07-15T01:28:59;9.73;;;3.85;;
42632;SDS011;28261;53.304;-6.284;2022-07-15T01:31:03;8.88;;;3.53;;
42632;SDS011;28261;53.304;-6.284;2022-07-15T01:33:09;6.00;;;3.45;;
42632;SDS011;28261;53.304;-6.284;2022-07-15T01:35:13;5.10;;;3.40;;
42632;SDS011;28261;53.304;-6.284;2022-07-15T01:37:20;9.43;;;3.72;;
42632;SDS011;28261;53.304;-6.284;2022-07-15T01:39:30;11.52;;;3.63;;
42632;SDS011;28261;53.304;-6.284;2022-07-15T01:41:40;11.13;;;3.50;;
42632;SDS011;28261;53.304;-6.284;2022-07-15T01:43:47;9.75;;;3.53;;
42632;SDS011;28261;53.304;-6.284;2022-07-15T01:45:51;7.80;;;3.28;;
42632;SDS011;28261;53.304;-6.284;2022-07-15T01:48:03;10.60;;;3.83;;
42632;SDS011;28261;53.304;-6.284;2022-07-15T01:50:21;6.80;;;3.60;;
42632;SDS011;28261;53.304;-6.284;2022-07-15T01:52:35;8.43;;;3.72;;
42632;SDS011;28261;53.304;-6.284;2022-07-15T01:54:40;6.63;;;3.28;;
42632;SDS011;28261;53.304;-6.284;2022-07-15T01:56:44;6.72;;;3.05;;
42632;SDS011;28261;53.304;-6.284;2022-07-15T01:58:48;8.18;;;3.13;;
42632;SDS011;28261;53.304;-6.284;2022-07-15T02:00:52;7.35;;;3.30;;
42632;SDS011;28261;53.304;-6.284;2022-07-15T02:02:55;11.18;;;3.53;;
42632;SDS011;28261;53.304;-6.284;2022-07-15T02:04:59;6.45;;;2.95;;
42632;SDS011;28261;53.304;-6.284;2022-07-15T02:07:03;8.43;;;3.42;;
42632;SDS011;28261;53.304;-6.284;2022-07-15T02:09:08;7.43;;;3.22;;
42632;SDS011;28261;53.304;-6.284;2022-07-15T02:11:17;7.07;;;3.65;;
42632;SDS011;28261;53.304;-6.284;2022-07-15T02:13:23;8.02;;;3.13;;
42632;SDS011;28261;53.304;-6.284;2022-07-15T02:15:31;9.10;;;3.10;;
42632;SDS011;28261;53.304;-6.284;2022-07-15T02:17:37;6.60;;;3.03;;
42632;SDS011;28261;53.304;-6.284;2022-07-15T02:19:41;6.60;;;2.88;;
42632;SDS011;28261;53.304;-6.284;2022-07-15T02:21:44;5.95;;;2.90;;
42632;SDS011;28261;53.304;-6.284;2022-07-15T02:23:49;6.80;;;3.00;;
42632;SDS011;28261;53.304;-6.284;2022-07-15T02:25:53;5.25;;;2.83;;
42632;SDS011;28261;53.304;-6.284;2022-07-15T02:28:02;7.50;;;2.85;;
42632;SDS011;28261;53.304;-6.284;2022-07-15T02:30:07;8.27;;;2.78;;
42632;SDS011;28261;53.304;-6.284;2022-07-15T02:32:14;7.35;;;2.95;;
42632;SDS011;28261;53.304;-6.284;2022-07-15T02:34:17;6.60;;;2.70;;
42632;SDS011;28261;53.304;-6.284;2022-07-15T02:36:22;5.03;;;3.00;;
42632;SDS011;28261;53.304;-6.284;2022-07-15T02:38:26;8.20;;;2.70;;
42632;SDS011;28261;53.304;-6.284;2022-07-15T02:40:29;7.10;;;2.60;;
42632;SDS011;28261;53.304;-6.284;2022-07-15T02:42:34;7.07;;;2.80;;
42632;SDS011;28261;53.304;-6.284;2022-07-15T02:44:41;7.57;;;3.05;;
42632;SDS011;28261;53.304;-6.284;2022-07-15T02:46:45;6.13;;;2.58;;
42632;SDS011;28261;53.304;-6.284;2022-07-15T02:48:54;5.95;;;2.88;;
42632;SDS011;28261;53.304;-6.284;2022-07-15T02:50:59;6.25;;;2.90;;
42632;SDS011;28261;53.304;-6.284;2022-07-15T02:53:03;3.55;;;2.78;;
42632;SDS011;28261;53.304;-6.284;2022-07-15T02:55:12;7.05;;;2.80;;
42632;SDS011;28261;53.304;-6.284;2022-07-15T02:57:16;7.68;;;2.80;;
42632;SDS011;28261;53.304;-6.284;2022-07-15T02:59:21;10.90;;;3.00;;
42632;SDS011;28261;53.304;-6.284;2022-07-15T03:01:30;6.78;;;3.40;;
42632;SDS011;28261;53.304;-6.284;2022-07-15T03:03:35;9.15;;;2.75;;
42632;SDS011;28261;53.304;-6.284;2022-07-15T03:05:40;7.57;;;3.10;;
42632;SDS011;28261;53.304;-6.284;2022-07-15T03:07:44;6.15;;;3.30;;
42632;SDS011;28261;53.304;-6.284;2022-07-15T03:09:52;7.22;;;2.70;;
42632;SDS011;28261;53.304;-6.284;2022-07-15T03:11:55;6.43;;;3.25;;
42632;SDS011;28261;53.304;-6.284;2022-07-15T03:13:59;8.95;;;3.15;;
42632;SDS011;28261;53.304;-6.284;2022-07-15T03:16:05;4.00;;;2.60;;
42632;SDS011;28261;53.304;-6.284;2022-07-15T03:18:11;7.70;;;2.72;;
42632;SDS011;28261;53.304;-6.284;2022-07-15T03:20:15;5.07;;;2.65;;
42632;SDS011;28261;53.304;-6.284;2022-07-15T03:22:24;4.43;;;2.63;;
42632;SDS011;28261;53.304;-6.284;2022-07-15T03:24:29;6.63;;;2.70;;
42632;SDS011;28261;53.304;-6.284;2022-07-15T03:26:33;6.00;;;2.70;;
42632;SDS011;28261;53.304;-6.284;2022-07-15T03:28:37;9.50;;;2.90;;
42632;SDS011;28261;53.304;-6.284;2022-07-15T03:30:41;5.88;;;2.83;;
42632;SDS011;28261;53.304;-6.284;2022-07-15T03:32:47;8.13;;;2.90;;
42632;SDS011;28261;53.304;-6.284;2022-07-15T03:34:54;5.25;;;2.60;;
42632;SDS011;28261;53.304;-6.284;2022-07-15T03:37:01;7.15;;;2.80;;
42632;SDS011;28261;53.304;-6.284;2022-07-15T03:39:05;6.60;;;2.40;;
42632;SDS011;28261;53.304;-6.284;2022-07-15T03:41:10;10.52;;;3.10;;
42632;SDS011;28261;53.304;-6.284;2022-07-15T03:43:15;5.80;;;2.60;;
42632;SDS011;28261;53.304;-6.284;2022-07-15T03:45:22;6.68;;;2.92;;
42632;SDS011;28261;53.304;-6.284;2022-07-15T03:47:26;6.35;;;2.83;;
42632;SDS011;28261;53.304;-6.284;2022-07-15T03:49:31;7.93;;;2.90;;
42632;SDS011;28261;53.304;-6.284;2022-07-15T03:51:36;6.03;;;2.38;;
42632;SDS011;28261;53.304;-6.284;2022-07-15T03:53:40;8.60;;;2.70;;
42632;SDS011;28261;53.304;-6.284;2022-07-15T03:55:43;5.07;;;2.90;;
42632;SDS011;28261;53.304;-6.284;2022-07-15T03:57:47;7.72;;;2.65;;
42632;SDS011;28261;53.304;-6.284;2022-07-15T03:59:51;7.28;;;3.08;;
42632;SDS011;28261;53.304;-6.284;2022-07-15T04:01:54;5.55;;;3.00;;
42632;SDS011;28261;53.304;-6.284;2022-07-15T04:03:58;10.52;;;2.88;;
42632;SDS011;28261;53.304;-6.284;2022-07-15T04:06:03;4.53;;;2.60;;
42632;SDS011;28261;53.304;-6.284;2022-07-15T04:08:09;6.68;;;2.65;;
42632;SDS011;28261;53.304;-6.284;2022-07-15T04:10:14;7.25;;;2.80;;
42632;SDS011;28261;53.304;-6.284;2022-07-15T04:12:17;8.05;;;3.03;;
42632;SDS011;28261;53.304;-6.284;2022-07-15T04:14:22;8.25;;;3.05;;
42632;SDS011;28261;53.304;-6.284;2022-07-15T04:16:25;4.18;;;2.60;;
42632;SDS011;28261;53.304;-6.284;2022-07-15T04:18:37;7.20;;;2.95;;
42632;SDS011;28261;53.304;-6.284;2022-07-15T04:20:41;4.75;;;2.60;;
42632;SDS011;28261;53.304;-6.284;2022-07-15T04:22:45;6.35;;;2.78;;
42632;SDS011;28261;53.304;-6.284;2022-07-15T04:24:51;5.30;;;2.50;;
42632;SDS011;28261;53.304;-6.284;2022-07-15T04:26:55;4.47;;;2.45;;
42632;SDS011;28261;53.304;-6.284;2022-07-15T04:28:59;6.65;;;2.67;;
42632;SDS011;28261;53.304;-6.284;2022-07-15T04:31:02;5.38;;;2.75;;
42632;SDS011;28261;53.304;-6.284;2022-07-15T04:33:16;7.20;;;2.70;;
42632;SDS011;28261;53.304;-6.284;2022-07-15T04:35:21;9.70;;;3.10;;
42632;SDS011;28261;53.304;-6.284;2022-07-15T04:37:34;9.03;;;3.17;;
42632;SDS011;28261;53.304;-6.284;2022-07-15T04:39:37;5.38;;;2.58;;
42632;SDS011;28261;53.304;-6.284;2022-07-15T04:41:43;6.13;;;3.13;;
42632;SDS011;28261;53.304;-6.284;2022-07-15T04:43:48;6.00;;;3.83;;
42632;SDS011;28261;53.304;-6.284;2022-07-15T04:45:51;5.55;;;2.67;;
42632;SDS011;28261;53.304;-6.284;2022-07-15T04:48:01;5.97;;;2.90;;
42632;SDS011;28261;53.304;-6.284;2022-07-15T04:50:27;5.68;;;3.03;;
42632;SDS011;28261;53.304;-6.284;2022-07-15T04:52:48;5.82;;;2.55;;
42632;SDS011;28261;53.304;-6.284;2022-07-15T04:54:52;8.68;;;3.08;;
42632;SDS011;28261;53.304;-6.284;2022-07-15T04:56:58;7.00;;;3.15;;
42632;SDS011;28261;53.304;-6.284;2022-07-15T04:59:01;7.10;;;3.03;;
42632;SDS011;28261;53.304;-6.284;2022-07-15T05:01:06;3.72;;;2.78;;
42632;SDS011;28261;53.304;-6.284;2022-07-15T05:03:10;8.80;;;3.00;;
42632;SDS011;28261;53.304;-6.284;2022-07-15T05:05:14;7.07;;;3.10;;
42632;SDS011;28261;53.304;-6.284;2022-07-15T05:07:18;5.68;;;2.80;;
42632;SDS011;28261;53.304;-6.284;2022-07-15T05:09:22;7.75;;;3.05;;
42632;SDS011;28261;53.304;-6.284;2022-07-15T05:11:26;6.88;;;3.08;;
42632;SDS011;28261;53.304;-6.284;2022-07-15T05:13:31;4.40;;;2.60;;
42632;SDS011;28261;53.304;-6.284;2022-07-15T05:15:35;9.02;;;3.00;;
42632;SDS011;28261;53.304;-6.284;2022-07-15T05:17:47;9.33;;;2.70;;
42632;SDS011;28261;53.304;-6.284;2022-07-15T05:19:54;10.93;;;2.95;;
42632;SDS011;28261;53.304;-6.284;2022-07-15T05:21:58;7.63;;;2.70;;
42632;SDS011;28261;53.304;-6.284;2022-07-15T05:24:04;5.80;;;2.97;;
42632;SDS011;28261;53.304;-6.284;2022-07-15T05:26:28;7.53;;;3.13;;
42632;SDS011;28261;53.304;-6.284;2022-07-15T05:28:40;9.60;;;3.10;;
42632;SDS011;28261;53.304;-6.284;2022-07-15T05:30:44;6.00;;;2.95;;
42632;SDS011;28261;53.304;-6.284;2022-07-15T05:32:49;8.63;;;3.05;;
42632;SDS011;28261;53.304;-6.284;2022-07-15T05:34:56;4.90;;;2.80;;
42632;SDS011;28261;53.304;-6.284;2022-07-15T05:36:59;5.65;;;3.05;;
42632;SDS011;28261;53.304;-6.284;2022-07-15T05:39:03;6.68;;;2.92;;
42632;SDS011;28261;53.304;-6.284;2022-07-15T05:41:08;5.60;;;2.70;;
42632;SDS011;28261;53.304;-6.284;2022-07-15T05:43:12;3.35;;;2.72;;
42632;SDS011;28261;53.304;-6.284;2022-07-15T05:45:19;6.45;;;2.80;;
42632;SDS011;28261;53.304;-6.284;2022-07-15T05:47:31;4.20;;;2.50;;
42632;SDS011;28261;53.304;-6.284;2022-07-15T05:49:35;4.22;;;2.45;;
42632;SDS011;28261;53.304;-6.284;2022-07-15T05:51:45;3.92;;;2.42;;
42632;SDS011;28261;53.304;-6.284;2022-07-15T05:53:49;3.40;;;1.85;;
42632;SDS011;28261;53.304;-6.284;2022-07-15T05:55:54;6.25;;;2.30;;
42632;SDS011;28261;53.304;-6.284;2022-07-15T05:57:58;6.82;;;2.78;;
42632;SDS011;28261;53.304;-6.284;2022-07-15T06:00:06;6.28;;;2.50;;
42632;SDS011;28261;53.304;-6.284;2022-07-15T06:02:18;3.40;;;2.35;;
42632;SDS011;28261;53.304;-6.284;2022-07-15T06:04:22;3.97;;;2.40;;
42632;SDS011;28261;53.304;-6.284;2022-07-15T06:06:28;5.80;;;2.88;;
42632;SDS011;28261;53.304;-6.284;2022-07-15T06:08:33;6.15;;;2.55;;
42632;SDS011;28261;53.304;-6.284;2022-07-15T06:10:45;5.60;;;3.05;;
42632;SDS011;28261;53.304;-6.284;2022-07-15T06:12:49;3.08;;;2.25;;
42632;SDS011;28261;53.304;-6.284;2022-07-15T06:14:55;6.22;;;2.70;;
42632;SDS011;28261;53.304;-6.284;2022-07-15T06:17:00;6.30;;;2.70;;
42632;SDS011;28261;53.304;-6.284;2022-07-15T06:19:05;8.10;;;2.70;;
42632;SDS011;28261;53.304;-6.284;2022-07-15T06:21:11;6.38;;;2.70;;
42632;SDS011;28261;53.304;-6.284;2022-07-15T06:23:17;6.47;;;2.53;;
42632;SDS011;28261;53.304;-6.284;2022-07-15T06:25:21;3.35;;;2.38;;
42632;SDS011;28261;53.304;-6.284;2022-07-15T06:27:26;6.68;;;2.58;;
42632;SDS011;28261;53.304;-6.284;2022-07-15T06:29:32;5.38;;;2.55;;
42632;SDS011;28261;53.304;-6.284;2022-07-15T06:31:36;7.93;;;2.45;;
42632;SDS011;28261;53.304;-6.284;2022-07-15T06:33:40;6.35;;;3.05;;
42632;SDS011;28261;53.304;-6.284;2022-07-15T06:35:45;6.18;;;2.67;;
42632;SDS011;28261;53.304;-6.284;2022-07-15T06:37:49;5.53;;;2.70;;
42632;SDS011;28261;53.304;-6.284;2022-07-15T06:39:54;4.47;;;2.83;;
42632;SDS011;28261;53.304;-6.284;2022-07-15T06:41:58;15.35;;;8.25;;
42632;SDS011;28261;53.304;-6.284;2022-07-15T06:44:02;5.45;;;2.15;;
42632;SDS011;28261;53.304;-6.284;2022-07-15T06:46:15;5.10;;;2.40;;
42632;SDS011;28261;53.304;-6.284;2022-07-15T06:48:19;8.23;;;2.30;;
42632;SDS011;28261;53.304;-6.284;2022-07-15T06:50:23;12.57;;;2.78;;
42632;SDS011;28261;53.304;-6.284;2022-07-15T06:52:28;6.40;;;2.58;;
42632;SDS011;28261;53.304;-6.284;2022-07-15T06:54:32;7.65;;;2.08;;
42632;SDS011;28261;53.304;-6.284;2022-07-15T06:56:36;7.53;;;2.65;;
42632;SDS011;28261;53.304;-6.284;2022-07-15T06:58:41;5.32;;;2.00;;
42632;SDS011;28261;53.304;-6.284;2022-07-15T07:00:46;8.10;;;2.40;;
42632;SDS011;28261;53.304;-6.284;2022-07-15T07:02:49;5.20;;;2.05;;
42632;SDS011;28261;53.304;-6.284;2022-07-15T07:04:53;5.05;;;2.10;;
42632;SDS011;28261;53.304;-6.284;2022-07-15T07:06:58;9.07;;;2.40;;
42632;SDS011;28261;53.304;-6.284;2022-07-15T07:09:03;7.70;;;2.35;;
42632;SDS011;28261;53.304;-6.284;2022-07-15T07:11:08;9.82;;;2.65;;
42632;SDS011;28261;53.304;-6.284;2022-07-15T07:13:12;8.05;;;2.80;;
42632;SDS011;28261;53.304;-6.284;2022-07-15T07:15:16;6.13;;;2.20;;
42632;SDS011;28261;53.304;-6.284;2022-07-15T07:17:23;8.07;;;2.53;;
42632;SDS011;28261;53.304;-6.284;2022-07-15T07:19:26;3.78;;;2.22;;
42632;SDS011;28261;53.304;-6.284;2022-07-15T07:21:30;4.13;;;2.45;;
42632;SDS011;28261;53.304;-6.284;2022-07-15T07:23:34;5.45;;;2.17;;
42632;SDS011;28261;53.304;-6.284;2022-07-15T07:25:39;3.08;;;1.90;;
42632;SDS011;28261;53.304;-6.284;2022-07-15T07:27:43;3.92;;;2.10;;
42632;SDS011;28261;53.304;-6.284;2022-07-15T07:29:47;9.48;;;2.67;;
42632;SDS011;28261;53.304;-6.284;2022-07-15T07:31:50;3.63;;;2.17;;
42632;SDS011;28261;53.304;-6.284;2022-07-15T07:33:55;4.53;;;2.58;;
42632;SDS011;28261;53.304;-6.284;2022-07-15T07:35:59;4.10;;;2.20;;
42632;SDS011;28261;53.304;-6.284;2022-07-15T07:38:03;4.93;;;1.90;;
42632;SDS011;28261;53.304;-6.284;2022-07-15T07:40:08;3.10;;;1.85;;
42632;SDS011;28261;53.304;-6.284;2022-07-15T07:42:13;2.80;;;2.00;;
42632;SDS011;28261;53.304;-6.284;2022-07-15T07:44:18;9.50;;;2.33;;
42632;SDS011;28261;53.304;-6.284;2022-07-15T07:46:21;6.75;;;2.40;;
42632;SDS011;28261;53.304;-6.284;2022-07-15T07:48:25;6.43;;;2.13;;
42632;SDS011;28261;53.304;-6.284;2022-07-15T07:50:29;2.75;;;1.75;;
42632;SDS011;28261;53.304;-6.284;2022-07-15T07:52:33;1.67;;;1.38;;
42632;SDS011;28261;53.304;-6.284;2022-07-15T07:54:37;4.78;;;1.80;;
42632;SDS011;28261;53.304;-6.284;2022-07-15T07:56:40;10.60;;;2.05;;
42632;SDS011;28261;53.304;-6.284;2022-07-15T07:58:48;2.70;;;1.70;;
42632;SDS011;28261;53.304;-6.284;2022-07-15T08:00:52;2.10;;;1.55;;
42632;SDS011;28261;53.304;-6.284;2022-07-15T08:02:58;5.53;;;1.90;;
42632;SDS011;28261;53.304;-6.284;2022-07-15T08:05:03;2.20;;;1.55;;
42632;SDS011;28261;53.304;-6.284;2022-07-15T08:07:07;3.97;;;1.58;;
42632;SDS011;28261;53.304;-6.284;2022-07-15T08:09:11;8.45;;;1.80;;
42632;SDS011;28261;53.304;-6.284;2022-07-15T08:11:15;3.50;;;1.60;;
42632;SDS011;28261;53.304;-6.284;2022-07-15T08:13:22;2.42;;;1.33;;
42632;SDS011;28261;53.304;-6.284;2022-07-15T08:15:29;2.65;;;1.40;;
42632;SDS011;28261;53.304;-6.284;2022-07-15T08:17:33;1.85;;;1.30;;
42632;SDS011;28261;53.304;-6.284;2022-07-15T08:19:37;2.72;;;1.48;;
42632;SDS011;28261;53.304;-6.284;2022-07-15T08:21:43;2.95;;;1.60;;
42632;SDS011;28261;53.304;-6.284;2022-07-15T08:23:47;5.15;;;1.48;;
42632;SDS011;28261;53.304;-6.284;2022-07-15T08:25:51;6.55;;;1.70;;
42632;SDS011;28261;53.304;-6.284;2022-07-15T08:27:56;4.68;;;1.83;;
42632;SDS011;28261;53.304;-6.284;2022-07-15T08:30:00;4.32;;;1.70;;
42632;SDS011;28261;53.304;-6.284;2022-07-15T08:32:06;3.50;;;1.40;;
42632;SDS011;28261;53.304;-6.284;2022-07-15T08:34:10;5.88;;;1.60;;
42632;SDS011;28261;53.304;-6.284;2022-07-15T08:36:14;1.70;;;1.38;;
42632;SDS011;28261;53.304;-6.284;2022-07-15T08:38:18;2.42;;;1.50;;
42632;SDS011;28261;53.304;-6.284;2022-07-15T08:40:23;2.47;;;1.52;;
42632;SDS011;28261;53.304;-6.284;2022-07-15T08:42:27;2.85;;;1.58;;
42632;SDS011;28261;53.304;-6.284;2022-07-15T08:44:31;2.17;;;1.60;;
42632;SDS011;28261;53.304;-6.284;2022-07-15T08:46:37;4.28;;;1.70;;
42632;SDS011;28261;53.304;-6.284;2022-07-15T08:48:48;5.32;;;1.90;;
42632;SDS011;28261;53.304;-6.284;2022-07-15T08:50:54;2.33;;;1.55;;
42632;SDS011;28261;53.304;-6.284;2022-07-15T08:52:58;3.08;;;1.50;;
42632;SDS011;28261;53.304;-6.284;2022-07-15T08:55:02;2.92;;;1.73;;
42632;SDS011;28261;53.304;-6.284;2022-07-15T08:57:06;2.65;;;1.70;;
42632;SDS011;28261;53.304;-6.284;2022-07-15T08:59:10;2.75;;;1.58;;
42632;SDS011;28261;53.304;-6.284;2022-07-15T09:01:13;5.30;;;1.58;;
42632;SDS011;28261;53.304;-6.284;2022-07-15T09:03:18;2.13;;;1.55;;
42632;SDS011;28261;53.304;-6.284;2022-07-15T09:05:24;4.75;;;1.60;;
42632;SDS011;28261;53.304;-6.284;2022-07-15T09:07:30;3.40;;;1.63;;
42632;SDS011;28261;53.304;-6.284;2022-07-15T09:09:38;1.98;;;1.55;;
42632;SDS011;28261;53.304;-6.284;2022-07-15T09:11:41;4.55;;;1.65;;
42632;SDS011;28261;53.304;-6.284;2022-07-15T09:13:45;3.05;;;1.83;;
42632;SDS011;28261;53.304;-6.284;2022-07-15T09:15:49;4.63;;;1.70;;
42632;SDS011;28261;53.304;-6.284;2022-07-15T09:18:01;6.30;;;1.77;;
42632;SDS011;28261;53.304;-6.284;2022-07-15T09:20:09;2.20;;;2.00;;
42632;SDS011;28261;53.304;-6.284;2022-07-15T09:22:17;5.43;;;1.88;;
42632;SDS011;28261;53.304;-6.284;2022-07-15T09:24:21;4.90;;;1.67;;
42632;SDS011;28261;53.304;-6.284;2022-07-15T09:26:25;1.90;;;1.55;;
42632;SDS011;28261;53.304;-6.284;2022-07-15T09:28:37;4.32;;;1.80;;
42632;SDS011;28261;53.304;-6.284;2022-07-15T09:30:46;1.73;;;1.60;;
42632;SDS011;28261;53.304;-6.284;2022-07-15T09:33:08;2.53;;;1.63;;
42632;SDS011;28261;53.304;-6.284;2022-07-15T09:35:30;2.92;;;1.80;;
42632;SDS011;28261;53.304;-6.284;2022-07-15T09:37:56;2.47;;;1.55;;
42632;SDS011;28261;53.304;-6.284;2022-07-15T09:40:02;2.90;;;1.95;;
42632;SDS011;28261;53.304;-6.284;2022-07-15T09:42:07;3.13;;;1.83;;
42632;SDS011;28261;53.304;-6.284;2022-07-15T09:44:12;3.15;;;1.60;;
42632;SDS011;28261;53.304;-6.284;2022-07-15T09:46:17;4.28;;;1.63;;
42632;SDS011;28261;53.304;-6.284;2022-07-15T09:48:23;2.33;;;1.70;;
42632;SDS011;28261;53.304;-6.284;2022-07-15T09:50:33;1.70;;;1.55;;
42632;SDS011;28261;53.304;-6.284;2022-07-15T09:52:45;1.70;;;1.50;;
42632;SDS011;28261;53.304;-6.284;2022-07-15T09:54:51;2.20;;;1.80;;
42632;SDS011;28261;53.304;-6.284;2022-07-15T09:56:56;3.08;;;1.60;;
42632;SDS011;28261;53.304;-6.284;2022-07-15T09:59:01;4.47;;;2.00;;
42632;SDS011;28261;53.304;-6.284;2022-07-15T10:01:06;2.00;;;1.60;;
42632;SDS011;28261;53.304;-6.284;2022-07-15T10:03:10;2.42;;;1.70;;
42632;SDS011;28261;53.304;-6.284;2022-07-15T10:05:14;4.22;;;1.80;;
42632;SDS011;28261;53.304;-6.284;2022-07-15T10:07:18;2.33;;;1.70;;
42632;SDS011;28261;53.304;-6.284;2022-07-15T10:09:30;4.15;;;2.00;;
42632;SDS011;28261;53.304;-6.284;2022-07-15T10:11:38;1.90;;;1.63;;
42632;SDS011;28261;53.304;-6.284;2022-07-15T10:14:06;2.70;;;1.73;;
42632;SDS011;28261;53.304;-6.284;2022-07-15T10:16:39;2.28;;;1.88;;
42632;SDS011;28261;53.304;-6.284;2022-07-15T10:19:07;4.40;;;1.90;;
42632;SDS011;28261;53.304;-6.284;2022-07-15T10:21:20;2.10;;;1.70;;
42632;SDS011;28261;53.304;-6.284;2022-07-15T10:26:12;3.60;;;1.83;;
42632;SDS011;28261;53.304;-6.284;2022-07-15T10:28:43;2.65;;;1.90;;
42632;SDS011;28261;53.304;-6.284;2022-07-15T10:33:21;3.15;;;1.58;;
42632;SDS011;28261;53.304;-6.284;2022-07-15T10:35:34;2.10;;;1.80;;
42632;SDS011;28261;53.304;-6.284;2022-07-15T10:37:48;6.65;;;1.92;;
42632;SDS011;28261;53.304;-6.284;2022-07-15T10:43:00;2.10;;;1.90;;
42632;SDS011;28261;53.304;-6.284;2022-07-15T10:45:09;3.20;;;2.13;;
42632;SDS011;28261;53.304;-6.284;2022-07-15T10:47:16;4.25;;;1.88;;
42632;SDS011;28261;53.304;-6.284;2022-07-15T10:49:28;2.65;;;2.13;;
42632;SDS011;28261;53.304;-6.284;2022-07-15T10:53:55;3.28;;;2.42;;
42632;SDS011;28261;53.304;-6.284;2022-07-15T10:58:32;3.42;;;2.15;;
42632;SDS011;28261;53.304;-6.284;2022-07-15T11:00:38;3.30;;;2.38;;
42632;SDS011;28261;53.304;-6.284;2022-07-15T11:02:53;3.95;;;2.28;;
42632;SDS011;28261;53.304;-6.284;2022-07-15T11:05:17;3.40;;;2.15;;
42632;SDS011;28261;53.304;-6.284;2022-07-15T11:07:24;4.60;;;2.30;;
42632;SDS011;28261;53.304;-6.284;2022-07-15T11:09:43;4.93;;;2.33;;
42632;SDS011;28261;53.304;-6.284;2022-07-15T11:11:47;4.40;;;2.45;;
42632;SDS011;28261;53.304;-6.284;2022-07-15T11:13:52;3.30;;;2.45;;
42632;SDS011;28261;53.304;-6.284;2022-07-15T11:15:58;4.13;;;2.60;;
42632;SDS011;28261;53.304;-6.284;2022-07-15T11:18:03;5.03;;;2.72;;
42632;SDS011;28261;53.304;-6.284;2022-07-15T11:20:11;4.15;;;2.55;;
42632;SDS011;28261;53.304;-6.284;2022-07-15T11:22:16;3.08;;;2.28;;
42632;SDS011;28261;53.304;-6.284;2022-07-15T11:24:21;3.08;;;2.40;;
42632;SDS011;28261;53.304;-6.284;2022-07-15T11:26:41;2.65;;;2.10;;
42632;SDS011;28261;53.304;-6.284;2022-07-15T11:28:49;3.65;;;2.20;;
42632;SDS011;28261;53.304;-6.284;2022-07-15T11:30:54;3.88;;;2.70;;
42632;SDS011;28261;53.304;-6.284;2022-07-15T11:33:01;4.68;;;2.78;;
42632;SDS011;28261;53.304;-6.284;2022-07-15T11:35:06;4.85;;;2.80;;
42632;SDS011;28261;53.304;-6.284;2022-07-15T11:37:15;4.70;;;2.67;;
42632;SDS011;28261;53.304;-6.284;2022-07-15T11:39:26;6.68;;;3.03;;
42632;SDS011;28261;53.304;-6.284;2022-07-15T11:41:31;4.47;;;2.70;;
42632;SDS011;28261;53.304;-6.284;2022-07-15T11:43:57;4.32;;;2.88;;
42632;SDS011;28261;53.304;-6.284;2022-07-15T11:46:19;4.03;;;2.60;;
42632;SDS011;28261;53.304;-6.284;2022-07-15T11:48:26;4.65;;;2.88;;
42632;SDS011;28261;53.304;-6.284;2022-07-15T11:50:29;4.80;;;2.90;;
42632;SDS011;28261;53.304;-6.284;2022-07-15T11:52:33;4.53;;;2.80;;
42632;SDS011;28261;53.304;-6.284;2022-07-15T11:54:37;5.60;;;3.38;;
42632;SDS011;28261;53.304;-6.284;2022-07-15T11:56:42;3.40;;;2.80;;
42632;SDS011;28261;53.304;-6.284;2022-07-15T11:58:49;7.70;;;3.50;;
42632;SDS011;28261;53.304;-6.284;2022-07-15T12:00:55;4.75;;;3.20;;
42632;SDS011;28261;53.304;-6.284;2022-07-15T12:03:05;6.07;;;3.30;;
42632;SDS011;28261;53.304;-6.284;2022-07-15T12:05:11;4.47;;;3.38;;
42632;SDS011;28261;53.304;-6.284;2022-07-15T12:07:16;4.93;;;3.33;;
42632;SDS011;28261;53.304;-6.284;2022-07-15T12:09:19;4.13;;;3.35;;
42632;SDS011;28261;53.304;-6.284;2022-07-15T12:11:23;6.25;;;3.13;;
42632;SDS011;28261;53.304;-6.284;2022-07-15T12:13:41;4.70;;;3.53;;
42632;SDS011;28261;53.304;-6.284;2022-07-15T12:15:47;5.63;;;3.58;;
42632;SDS011;28261;53.304;-6.284;2022-07-15T12:17:51;4.55;;;3.30;;
42632;SDS011;28261;53.304;-6.284;2022-07-15T12:19:56;5.93;;;3.35;;
42632;SDS011;28261;53.304;-6.284;2022-07-15T12:22:05;5.53;;;3.58;;
42632;SDS011;28261;53.304;-6.284;2022-07-15T12:24:14;4.90;;;3.33;;
42632;SDS011;28261;53.304;-6.284;2022-07-15T12:26:19;5.13;;;3.63;;
42632;SDS011;28261;53.304;-6.284;2022-07-15T12:28:29;5.97;;;4.03;;
42632;SDS011;28261;53.304;-6.284;2022-07-15T12:30:33;4.78;;;3.58;;
42632;SDS011;28261;53.304;-6.284;2022-07-15T12:32:39;4.95;;;3.60;;
42632;SDS011;28261;53.304;-6.284;2022-07-15T12:34:48;6.43;;;3.97;;
42632;SDS011;28261;53.304;-6.284;2022-07-15T12:36:56;6.20;;;3.60;;
42632;SDS011;28261;53.304;-6.284;2022-07-15T12:39:07;4.22;;;3.53;;
42632;SDS011;28261;53.304;-6.284;2022-07-15T12:41:22;4.65;;;3.45;;
42632;SDS011;28261;53.304;-6.284;2022-07-15T12:43:45;5.65;;;3.90;;